Terminal Aerodrome Forecast
Issued by NWS Wilmington, OH

Current Version | Previous Version | Text Only | Print | Product List | Glossary Off
Versions: 1 2 3 4 5 6 7 8 9 10 11 12 13 14

000
FTUS41 KILN 211607 AAA
TAFCMH
TAF AMD
KCMH 211607Z 2116/2212 36006KT P6SM SCT018
     FM211900 34009KT P6SM BKN200
     FM220200 33010G16KT P6SM BKN100
     FM220400 34012G22KT P6SM BKN100
     FM220800 36012G22KT P6SM SCT250=

USA.gov is the U.S. government's official web portal to all federal, state and local government web resources and services.